sensor_id;sensor_type;location;lat;lon;timestamp;P1;durP1;ratioP1;P2;durP2;ratioP2
13609;SDS011;6876;50.788;4.940;2023-05-06T00:02:26;1999.90;;;999.90;;
13609;SDS011;6876;50.788;4.940;2023-05-06T00:05:14;1999.90;;;999.90;;
13609;SDS011;6876;50.788;4.940;2023-05-06T00:08:03;1999.90;;;999.90;;
13609;SDS011;6876;50.788;4.940;2023-05-06T00:10:51;1999.90;;;999.90;;
13609;SDS011;6876;50.788;4.940;2023-05-06T00:13:38;1999.90;;;999.90;;
13609;SDS011;6876;50.788;4.940;2023-05-06T00:16:25;1999.90;;;999.90;;
13609;SDS011;6876;50.788;4.940;2023-05-06T00:19:14;1999.90;;;999.90;;
13609;SDS011;6876;50.788;4.940;2023-05-06T00:22:01;1999.90;;;999.90;;
13609;SDS011;6876;50.788;4.940;2023-05-06T00:24:49;1999.90;;;999.90;;
13609;SDS011;6876;50.788;4.940;2023-05-06T00:27:36;1999.90;;;999.90;;
13609;SDS011;6876;50.788;4.940;2023-05-06T00:30:24;1999.90;;;999.90;;
13609;SDS011;6876;50.788;4.940;2023-05-06T00:33:11;1999.90;;;999.90;;
13609;SDS011;6876;50.788;4.940;2023-05-06T00:36:00;1999.90;;;999.90;;
13609;SDS011;6876;50.788;4.940;2023-05-06T00:38:47;1999.90;;;999.90;;
13609;SDS011;6876;50.788;4.940;2023-05-06T00:41:35;1999.90;;;999.90;;
13609;SDS011;6876;50.788;4.940;2023-05-06T00:44:22;1999.90;;;999.90;;
13609;SDS011;6876;50.788;4.940;2023-05-06T00:47:09;1999.90;;;999.90;;
13609;SDS011;6876;50.788;4.940;2023-05-06T00:49:57;1999.90;;;999.90;;
13609;SDS011;6876;50.788;4.940;2023-05-06T00:52:46;1999.90;;;999.90;;
13609;SDS011;6876;50.788;4.940;2023-05-06T00:55:34;1999.90;;;999.90;;
13609;SDS011;6876;50.788;4.940;2023-05-06T00:58:21;1999.90;;;999.90;;
13609;SDS011;6876;50.788;4.940;2023-05-06T01:01:08;1999.90;;;999.90;;
13609;SDS011;6876;50.788;4.940;2023-05-06T01:03:56;1999.90;;;999.90;;
13609;SDS011;6876;50.788;4.940;2023-05-06T01:06:44;1999.90;;;999.90;;
13609;SDS011;6876;50.788;4.940;2023-05-06T01:09:41;1999.90;;;999.90;;
13609;SDS011;6876;50.788;4.940;2023-05-06T01:12:39;1999.90;;;999.90;;
13609;SDS011;6876;50.788;4.940;2023-05-06T01:15:35;1999.90;;;999.90;;
13609;SDS011;6876;50.788;4.940;2023-05-06T01:18:26;1999.90;;;999.90;;
13609;SDS011;6876;50.788;4.940;2023-05-06T01:21:17;1999.90;;;999.90;;
13609;SDS011;6876;50.788;4.940;2023-05-06T01:24:08;1999.90;;;999.90;;
13609;SDS011;6876;50.788;4.940;2023-05-06T01:26:56;1999.90;;;999.90;;
13609;SDS011;6876;50.788;4.940;2023-05-06T01:29:43;1999.90;;;999.90;;
13609;SDS011;6876;50.788;4.940;2023-05-06T01:32:38;1999.90;;;999.90;;
13609;SDS011;6876;50.788;4.940;2023-05-06T01:35:33;1999.90;;;999.90;;
13609;SDS011;6876;50.788;4.940;2023-05-06T01:38:28;1999.90;;;999.90;;
13609;SDS011;6876;50.788;4.940;2023-05-06T01:41:21;1999.90;;;999.90;;
13609;SDS011;6876;50.788;4.940;2023-05-06T01:44:11;1999.90;;;999.90;;
13609;SDS011;6876;50.788;4.940;2023-05-06T01:47:00;1999.90;;;999.90;;
13609;SDS011;6876;50.788;4.940;2023-05-06T01:49:47;1999.90;;;999.90;;
13609;SDS011;6876;50.788;4.940;2023-05-06T01:52:35;1999.90;;;999.90;;
13609;SDS011;6876;50.788;4.940;2023-05-06T01:55:23;1999.90;;;999.90;;
13609;SDS011;6876;50.788;4.940;2023-05-06T01:58:11;1999.90;;;999.90;;
13609;SDS011;6876;50.788;4.940;2023-05-06T02:00:58;1999.90;;;999.90;;
13609;SDS011;6876;50.788;4.940;2023-05-06T02:03:46;1999.90;;;999.90;;
13609;SDS011;6876;50.788;4.940;2023-05-06T02:06:33;1999.90;;;999.90;;
13609;SDS011;6876;50.788;4.940;2023-05-06T02:09:20;1999.90;;;999.90;;
13609;SDS011;6876;50.788;4.940;2023-05-06T02:12:08;1999.90;;;999.90;;
13609;SDS011;6876;50.788;4.940;2023-05-06T02:14:57;1999.90;;;999.90;;
13609;SDS011;6876;50.788;4.940;2023-05-06T02:17:44;1999.90;;;999.90;;
13609;SDS011;6876;50.788;4.940;2023-05-06T02:20:31;1999.90;;;999.90;;
13609;SDS011;6876;50.788;4.940;2023-05-06T02:23:19;1999.90;;;999.90;;
13609;SDS011;6876;50.788;4.940;2023-05-06T02:26:06;1999.90;;;999.90;;
13609;SDS011;6876;50.788;4.940;2023-05-06T02:28:53;1999.90;;;999.90;;
13609;SDS011;6876;50.788;4.940;2023-05-06T02:31:42;1999.90;;;999.90;;
13609;SDS011;6876;50.788;4.940;2023-05-06T02:34:29;1999.90;;;999.90;;
13609;SDS011;6876;50.788;4.940;2023-05-06T02:37:16;1999.90;;;999.90;;
13609;SDS011;6876;50.788;4.940;2023-05-06T02:40:04;1999.90;;;999.90;;
13609;SDS011;6876;50.788;4.940;2023-05-06T02:42:53;1999.90;;;999.90;;
13609;SDS011;6876;50.788;4.940;2023-05-06T02:45:40;1999.90;;;999.90;;
13609;SDS011;6876;50.788;4.940;2023-05-06T02:48:29;1999.90;;;999.90;;
13609;SDS011;6876;50.788;4.940;2023-05-06T02:51:16;1999.90;;;999.90;;
13609;SDS011;6876;50.788;4.940;2023-05-06T02:54:04;1999.90;;;999.90;;
13609;SDS011;6876;50.788;4.940;2023-05-06T02:56:51;1999.90;;;999.90;;
13609;SDS011;6876;50.788;4.940;2023-05-06T02:59:38;1999.90;;;999.90;;
13609;SDS011;6876;50.788;4.940;2023-05-06T03:02:26;1999.90;;;999.90;;
13609;SDS011;6876;50.788;4.940;2023-05-06T03:05:14;1999.90;;;999.90;;
13609;SDS011;6876;50.788;4.940;2023-05-06T03:08:02;1999.90;;;999.90;;
13609;SDS011;6876;50.788;4.940;2023-05-06T03:10:49;1999.90;;;999.90;;
13609;SDS011;6876;50.788;4.940;2023-05-06T03:13:37;1999.90;;;999.90;;
13609;SDS011;6876;50.788;4.940;2023-05-06T03:16:24;1999.90;;;999.90;;
13609;SDS011;6876;50.788;4.940;2023-05-06T03:19:11;1999.90;;;999.90;;
13609;SDS011;6876;50.788;4.940;2023-05-06T03:22:00;1999.90;;;999.90;;
13609;SDS011;6876;50.788;4.940;2023-05-06T03:24:47;1999.90;;;999.90;;
13609;SDS011;6876;50.788;4.940;2023-05-06T03:27:35;1999.90;;;999.90;;
13609;SDS011;6876;50.788;4.940;2023-05-06T03:30:22;1999.90;;;999.90;;
13609;SDS011;6876;50.788;4.940;2023-05-06T03:33:09;1999.90;;;999.90;;
13609;SDS011;6876;50.788;4.940;2023-05-06T03:35:57;1999.90;;;999.90;;
13609;SDS011;6876;50.788;4.940;2023-05-06T03:38:45;1999.90;;;999.90;;
13609;SDS011;6876;50.788;4.940;2023-05-06T03:41:33;1999.90;;;999.90;;
13609;SDS011;6876;50.788;4.940;2023-05-06T03:44:20;1999.90;;;999.90;;
13609;SDS011;6876;50.788;4.940;2023-05-06T03:47:07;1999.90;;;999.90;;
13609;SDS011;6876;50.788;4.940;2023-05-06T03:49:55;1999.90;;;999.90;;
13609;SDS011;6876;50.788;4.940;2023-05-06T03:52:42;1999.90;;;999.90;;
13609;SDS011;6876;50.788;4.940;2023-05-06T03:55:31;1999.90;;;999.90;;
13609;SDS011;6876;50.788;4.940;2023-05-06T03:58:18;1999.90;;;999.90;;
13609;SDS011;6876;50.788;4.940;2023-05-06T04:01:05;1999.90;;;999.90;;
13609;SDS011;6876;50.788;4.940;2023-05-06T04:03:53;1999.90;;;999.90;;
13609;SDS011;6876;50.788;4.940;2023-05-06T04:06:40;1999.90;;;999.90;;
13609;SDS011;6876;50.788;4.940;2023-05-06T04:09:27;1999.90;;;999.90;;
13609;SDS011;6876;50.788;4.940;2023-05-06T04:12:16;1999.90;;;999.90;;
13609;SDS011;6876;50.788;4.940;2023-05-06T04:15:04;1999.90;;;999.90;;
13609;SDS011;6876;50.788;4.940;2023-05-06T04:17:52;1999.90;;;999.90;;
13609;SDS011;6876;50.788;4.940;2023-05-06T04:20:39;1999.90;;;999.90;;
13609;SDS011;6876;50.788;4.940;2023-05-06T04:23:27;1999.90;;;999.90;;
13609;SDS011;6876;50.788;4.940;2023-05-06T04:26:14;1999.90;;;999.90;;
13609;SDS011;6876;50.788;4.940;2023-05-06T04:29:03;1999.90;;;999.90;;
13609;SDS011;6876;50.788;4.940;2023-05-06T04:31:50;1999.90;;;999.90;;
13609;SDS011;6876;50.788;4.940;2023-05-06T04:34:38;1999.90;;;999.90;;
13609;SDS011;6876;50.788;4.940;2023-05-06T04:37:25;1999.90;;;999.90;;
13609;SDS011;6876;50.788;4.940;2023-05-06T04:40:14;1999.90;;;999.90;;
13609;SDS011;6876;50.788;4.940;2023-05-06T04:43:02;1999.90;;;999.90;;
13609;SDS011;6876;50.788;4.940;2023-05-06T04:45:51;1999.90;;;999.90;;
13609;SDS011;6876;50.788;4.940;2023-05-06T04:48:38;1999.90;;;999.90;;
13609;SDS011;6876;50.788;4.940;2023-05-06T04:51:25;1999.90;;;999.90;;
13609;SDS011;6876;50.788;4.940;2023-05-06T04:54:13;1999.90;;;999.90;;
13609;SDS011;6876;50.788;4.940;2023-05-06T04:57:00;1999.90;;;999.90;;
13609;SDS011;6876;50.788;4.940;2023-05-06T04:59:47;1999.90;;;999.90;;
13609;SDS011;6876;50.788;4.940;2023-05-06T05:02:36;1999.90;;;999.90;;
13609;SDS011;6876;50.788;4.940;2023-05-06T05:05:27;1999.90;;;999.90;;
13609;SDS011;6876;50.788;4.940;2023-05-06T05:08:14;1999.90;;;999.90;;
13609;SDS011;6876;50.788;4.940;2023-05-06T05:11:02;1999.90;;;999.90;;
13609;SDS011;6876;50.788;4.940;2023-05-06T05:13:51;1999.90;;;999.90;;
13609;SDS011;6876;50.788;4.940;2023-05-06T05:16:38;1999.90;;;999.90;;
13609;SDS011;6876;50.788;4.940;2023-05-06T05:19:27;1999.90;;;999.90;;
13609;SDS011;6876;50.788;4.940;2023-05-06T05:22:15;1999.90;;;999.90;;
13609;SDS011;6876;50.788;4.940;2023-05-06T05:25:02;1999.90;;;999.90;;
13609;SDS011;6876;50.788;4.940;2023-05-06T05:27:50;1999.90;;;999.90;;
13609;SDS011;6876;50.788;4.940;2023-05-06T05:30:37;1999.90;;;999.90;;
13609;SDS011;6876;50.788;4.940;2023-05-06T05:33:24;1999.90;;;999.90;;
13609;SDS011;6876;50.788;4.940;2023-05-06T05:36:13;1999.90;;;999.90;;
13609;SDS011;6876;50.788;4.940;2023-05-06T05:39:01;1999.90;;;999.90;;
13609;SDS011;6876;50.788;4.940;2023-05-06T05:41:48;1999.90;;;999.90;;
13609;SDS011;6876;50.788;4.940;2023-05-06T05:44:35;1999.90;;;999.90;;
13609;SDS011;6876;50.788;4.940;2023-05-06T05:47:23;1999.90;;;999.90;;
13609;SDS011;6876;50.788;4.940;2023-05-06T05:50:10;1999.90;;;999.90;;
13609;SDS011;6876;50.788;4.940;2023-05-06T05:52:59;1999.90;;;999.90;;
13609;SDS011;6876;50.788;4.940;2023-05-06T05:55:46;1999.90;;;999.90;;
13609;SDS011;6876;50.788;4.940;2023-05-06T05:58:33;1999.90;;;999.90;;
13609;SDS011;6876;50.788;4.940;2023-05-06T06:01:20;1999.90;;;999.90;;
13609;SDS011;6876;50.788;4.940;2023-05-06T06:04:08;1999.90;;;999.90;;
13609;SDS011;6876;50.788;4.940;2023-05-06T06:06:55;1999.90;;;999.90;;
13609;SDS011;6876;50.788;4.940;2023-05-06T06:09:44;1999.90;;;999.90;;
13609;SDS011;6876;50.788;4.940;2023-05-06T06:12:33;1999.90;;;999.90;;
13609;SDS011;6876;50.788;4.940;2023-05-06T06:15:20;1999.90;;;999.90;;
13609;SDS011;6876;50.788;4.940;2023-05-06T06:18:07;1999.90;;;999.90;;
13609;SDS011;6876;50.788;4.940;2023-05-06T06:20:55;1999.90;;;999.90;;
13609;SDS011;6876;50.788;4.940;2023-05-06T06:23:42;1999.90;;;999.90;;
13609;SDS011;6876;50.788;4.940;2023-05-06T06:26:31;1999.90;;;999.90;;
13609;SDS011;6876;50.788;4.940;2023-05-06T06:29:18;1999.90;;;999.90;;
13609;SDS011;6876;50.788;4.940;2023-05-06T06:32:06;1999.90;;;999.90;;
13609;SDS011;6876;50.788;4.940;2023-05-06T06:34:53;1999.90;;;999.90;;
13609;SDS011;6876;50.788;4.940;2023-05-06T06:37:40;1999.90;;;999.90;;
13609;SDS011;6876;50.788;4.940;2023-05-06T06:40:28;1999.90;;;999.90;;
13609;SDS011;6876;50.788;4.940;2023-05-06T06:43:16;1999.90;;;999.90;;
13609;SDS011;6876;50.788;4.940;2023-05-06T06:46:04;1999.90;;;999.90;;
13609;SDS011;6876;50.788;4.940;2023-05-06T06:48:51;398.90;;;366.92;;
13609;SDS011;6876;50.788;4.940;2023-05-06T06:51:39;899.22;;;819.20;;
13609;SDS011;6876;50.788;4.940;2023-05-06T06:54:26;802.35;;;740.85;;
13609;SDS011;6876;50.788;4.940;2023-05-06T06:57:13;795.30;;;737.42;;
13609;SDS011;6876;50.788;4.940;2023-05-06T07:00:02;735.70;;;688.92;;
13609;SDS011;6876;50.788;4.940;2023-05-06T07:02:50;678.60;;;637.70;;
13609;SDS011;6876;50.788;4.940;2023-05-06T07:05:39;695.75;;;652.65;;
13609;SDS011;6876;50.788;4.940;2023-05-06T07:08:26;739.47;;;691.97;;
13609;SDS011;6876;50.788;4.940;2023-05-06T07:11:14;673.58;;;633.50;;
13609;SDS011;6876;50.788;4.940;2023-05-06T07:14:01;647.47;;;610.15;;
13609;SDS011;6876;50.788;4.940;2023-05-06T07:16:50;758.25;;;710.22;;
13609;SDS011;6876;50.788;4.940;2023-05-06T07:19:37;675.80;;;634.10;;
13609;SDS011;6876;50.788;4.940;2023-05-06T07:22:24;647.75;;;610.22;;
13609;SDS011;6876;50.788;4.940;2023-05-06T07:25:13;680.28;;;640.30;;
13609;SDS011;6876;50.788;4.940;2023-05-06T07:28:00;675.05;;;634.70;;
13609;SDS011;6876;50.788;4.940;2023-05-06T07:30:47;744.30;;;696.72;;
13609;SDS011;6876;50.788;4.940;2023-05-06T07:33:37;672.47;;;632.55;;
13609;SDS011;6876;50.788;4.940;2023-05-06T07:36:24;711.65;;;667.30;;
13609;SDS011;6876;50.788;4.940;2023-05-06T07:39:13;820.22;;;761.17;;
13609;SDS011;6876;50.788;4.940;2023-05-06T07:42:00;781.88;;;730.75;;
13609;SDS011;6876;50.788;4.940;2023-05-06T07:44:47;770.03;;;719.63;;
13609;SDS011;6876;50.788;4.940;2023-05-06T07:47:35;744.25;;;696.55;;
13609;SDS011;6876;50.788;4.940;2023-05-06T07:50:24;728.25;;;683.30;;
13609;SDS011;6876;50.788;4.940;2023-05-06T07:53:11;747.20;;;700.17;;
13609;SDS011;6876;50.788;4.940;2023-05-06T07:55:58;1999.90;;;999.90;;
13609;SDS011;6876;50.788;4.940;2023-05-06T07:58:48;1999.90;;;999.90;;
13609;SDS011;6876;50.788;4.940;2023-05-06T08:01:35;1999.90;;;999.90;;
13609;SDS011;6876;50.788;4.940;2023-05-06T08:04:23;1999.90;;;999.90;;
13609;SDS011;6876;50.788;4.940;2023-05-06T08:07:12;1999.90;;;999.90;;
13609;SDS011;6876;50.788;4.940;2023-05-06T08:10:00;1999.90;;;999.90;;
13609;SDS011;6876;50.788;4.940;2023-05-06T08:12:47;1999.90;;;999.90;;
13609;SDS011;6876;50.788;4.940;2023-05-06T08:15:35;1999.90;;;999.90;;
13609;SDS011;6876;50.788;4.940;2023-05-06T08:18:22;1999.90;;;999.90;;
13609;SDS011;6876;50.788;4.940;2023-05-06T08:21:09;701.22;;;651.40;;
13609;SDS011;6876;50.788;4.940;2023-05-06T08:23:58;740.83;;;691.65;;
13609;SDS011;6876;50.788;4.940;2023-05-06T08:26:45;702.50;;;658.60;;
13609;SDS011;6876;50.788;4.940;2023-05-06T08:29:33;811.70;;;752.13;;
13609;SDS011;6876;50.788;4.940;2023-05-06T08:32:20;769.40;;;719.75;;
13609;SDS011;6876;50.788;4.940;2023-05-06T08:35:08;831.63;;;770.10;;
13609;SDS011;6876;50.788;4.940;2023-05-06T08:37:55;735.30;;;688.78;;
13609;SDS011;6876;50.788;4.940;2023-05-06T08:40:44;737.00;;;690.38;;
13609;SDS011;6876;50.788;4.940;2023-05-06T08:43:32;719.15;;;674.83;;
13609;SDS011;6876;50.788;4.940;2023-05-06T08:46:25;730.95;;;685.25;;
13609;SDS011;6876;50.788;4.940;2023-05-06T08:49:15;702.10;;;659.95;;
13609;SDS011;6876;50.788;4.940;2023-05-06T08:52:03;716.88;;;672.67;;
13609;SDS011;6876;50.788;4.940;2023-05-06T08:54:51;786.03;;;730.95;;
13609;SDS011;6876;50.788;4.940;2023-05-06T08:57:46;718.80;;;674.10;;
13609;SDS011;6876;50.788;4.940;2023-05-06T09:00:35;741.95;;;694.13;;
13609;SDS011;6876;50.788;4.940;2023-05-06T09:03:23;710.53;;;666.95;;
13609;SDS011;6876;50.788;4.940;2023-05-06T09:06:10;616.70;;;581.65;;
13609;SDS011;6876;50.788;4.940;2023-05-06T09:08:57;654.00;;;615.13;;
13609;SDS011;6876;50.788;4.940;2023-05-06T09:11:45;713.75;;;669.60;;
13609;SDS011;6876;50.788;4.940;2023-05-06T09:14:39;757.78;;;708.10;;
13609;SDS011;6876;50.788;4.940;2023-05-06T09:17:29;723.58;;;678.20;;
13609;SDS011;6876;50.788;4.940;2023-05-06T09:20:17;736.60;;;690.22;;
13609;SDS011;6876;50.788;4.940;2023-05-06T09:23:04;733.03;;;687.00;;
13609;SDS011;6876;50.788;4.940;2023-05-06T09:25:53;761.83;;;713.15;;
13609;SDS011;6876;50.788;4.940;2023-05-06T09:28:44;796.13;;;742.95;;
13609;SDS011;6876;50.788;4.940;2023-05-06T09:31:41;790.63;;;737.17;;
13609;SDS011;6876;50.788;4.940;2023-05-06T09:34:29;815.60;;;758.25;;
13609;SDS011;6876;50.788;4.940;2023-05-06T09:37:16;1696.35;;;932.38;;
13609;SDS011;6876;50.788;4.940;2023-05-06T09:40:06;787.53;;;733.03;;
13609;SDS011;6876;50.788;4.940;2023-05-06T09:42:54;751.05;;;701.58;;
13609;SDS011;6876;50.788;4.940;2023-05-06T09:45:42;845.15;;;775.85;;
13609;SDS011;6876;50.788;4.940;2023-05-06T09:48:32;812.33;;;749.88;;
13609;SDS011;6876;50.788;4.940;2023-05-06T09:51:19;811.30;;;753.00;;
13609;SDS011;6876;50.788;4.940;2023-05-06T09:54:07;685.05;;;644.13;;
13609;SDS011;6876;50.788;4.940;2023-05-06T09:56:55;691.90;;;650.05;;
13609;SDS011;6876;50.788;4.940;2023-05-06T09:59:43;792.10;;;736.67;;
13609;SDS011;6876;50.788;4.940;2023-05-06T10:02:32;764.00;;;714.65;;
13609;SDS011;6876;50.788;4.940;2023-05-06T10:05:20;812.15;;;755.47;;
13609;SDS011;6876;50.788;4.940;2023-05-06T10:08:10;1999.90;;;999.90;;
13609;SDS011;6876;50.788;4.940;2023-05-06T10:11:03;1999.90;;;999.90;;
13609;SDS011;6876;50.788;4.940;2023-05-06T10:13:51;1999.90;;;999.90;;
13609;SDS011;6876;50.788;4.940;2023-05-06T10:16:39;1999.90;;;999.90;;
13609;SDS011;6876;50.788;4.940;2023-05-06T10:19:27;1999.90;;;999.90;;
13609;SDS011;6876;50.788;4.940;2023-05-06T10:22:21;1999.90;;;999.90;;
13609;SDS011;6876;50.788;4.940;2023-05-06T10:25:17;1999.90;;;999.90;;
13609;SDS011;6876;50.788;4.940;2023-05-06T10:28:11;1999.90;;;999.90;;
13609;SDS011;6876;50.788;4.940;2023-05-06T10:30:58;1999.90;;;999.90;;
13609;SDS011;6876;50.788;4.940;2023-05-06T10:33:49;593.20;;;556.17;;
13609;SDS011;6876;50.788;4.940;2023-05-06T10:36:38;651.55;;;612.47;;
13609;SDS011;6876;50.788;4.940;2023-05-06T10:39:29;688.33;;;644.67;;
13609;SDS011;6876;50.788;4.940;2023-05-06T10:42:17;1999.90;;;999.90;;
13609;SDS011;6876;50.788;4.940;2023-05-06T10:45:05;1999.90;;;999.90;;
13609;SDS011;6876;50.788;4.940;2023-05-06T10:54:09;1999.90;;;999.90;;
13609;SDS011;6876;50.788;4.940;2023-05-06T10:57:07;1999.90;;;999.90;;
13609;SDS011;6876;50.788;4.940;2023-05-06T10:59:56;1999.90;;;999.90;;
13609;SDS011;6876;50.788;4.940;2023-05-06T11:02:43;1999.90;;;999.90;;
13609;SDS011;6876;50.788;4.940;2023-05-06T11:05:30;1999.90;;;999.90;;
13609;SDS011;6876;50.788;4.940;2023-05-06T11:08:22;578.72;;;544.63;;
13609;SDS011;6876;50.788;4.940;2023-05-06T11:14:39;1999.90;;;999.90;;
13609;SDS011;6876;50.788;4.940;2023-05-06T11:17:29;1999.90;;;999.90;;
13609;SDS011;6876;50.788;4.940;2023-05-06T11:20:18;1999.90;;;999.90;;
13609;SDS011;6876;50.788;4.940;2023-05-06T11:23:07;1999.90;;;999.90;;
13609;SDS011;6876;50.788;4.940;2023-05-06T11:25:55;1999.90;;;999.90;;
13609;SDS011;6876;50.788;4.940;2023-05-06T11:28:45;1999.90;;;999.90;;
13609;SDS011;6876;50.788;4.940;2023-05-06T11:31:38;1999.90;;;999.90;;
13609;SDS011;6876;50.788;4.940;2023-05-06T11:34:27;1999.90;;;999.90;;
13609;SDS011;6876;50.788;4.940;2023-05-06T11:37:22;1999.90;;;999.90;;
13609;SDS011;6876;50.788;4.940;2023-05-06T11:40:14;1999.90;;;999.90;;
13609;SDS011;6876;50.788;4.940;2023-05-06T11:43:08;1999.90;;;999.90;;
13609;SDS011;6876;50.788;4.940;2023-05-06T11:45:57;1999.90;;;999.90;;
13609;SDS011;6876;50.788;4.940;2023-05-06T11:48:46;1999.90;;;999.90;;
13609;SDS011;6876;50.788;4.940;2023-05-06T11:51:33;1999.90;;;999.90;;
13609;SDS011;6876;50.788;4.940;2023-05-06T11:54:21;1999.90;;;999.90;;
13609;SDS011;6876;50.788;4.940;2023-05-06T11:57:08;1999.90;;;999.90;;
13609;SDS011;6876;50.788;4.940;2023-05-06T11:59:56;1999.90;;;999.90;;
13609;SDS011;6876;50.788;4.940;2023-05-06T12:02:43;1999.90;;;999.90;;
13609;SDS011;6876;50.788;4.940;2023-05-06T12:05:32;1999.90;;;999.90;;
13609;SDS011;6876;50.788;4.940;2023-05-06T12:08:20;1999.90;;;999.90;;
13609;SDS011;6876;50.788;4.940;2023-05-06T12:11:08;1999.90;;;999.90;;
13609;SDS011;6876;50.788;4.940;2023-05-06T12:13:56;1999.90;;;999.90;;
13609;SDS011;6876;50.788;4.940;2023-05-06T12:16:44;1999.90;;;999.90;;
13609;SDS011;6876;50.788;4.940;2023-05-06T12:19:32;1999.90;;;999.90;;
13609;SDS011;6876;50.788;4.940;2023-05-06T12:22:21;1999.90;;;999.90;;
13609;SDS011;6876;50.788;4.940;2023-05-06T12:25:13;1999.90;;;999.90;;
13609;SDS011;6876;50.788;4.940;2023-05-06T12:28:11;1999.90;;;999.90;;
13609;SDS011;6876;50.788;4.940;2023-05-06T12:30:59;1999.90;;;999.90;;
13609;SDS011;6876;50.788;4.940;2023-05-06T12:34:03;1999.90;;;999.90;;
13609;SDS011;6876;50.788;4.940;2023-05-06T12:36:50;1999.90;;;999.90;;
13609;SDS011;6876;50.788;4.940;2023-05-06T12:39:39;1999.90;;;999.90;;
13609;SDS011;6876;50.788;4.940;2023-05-06T12:42:26;1999.90;;;999.90;;
13609;SDS011;6876;50.788;4.940;2023-05-06T12:45:14;1999.90;;;999.90;;
13609;SDS011;6876;50.788;4.940;2023-05-06T12:48:02;1999.90;;;999.90;;
13609;SDS011;6876;50.788;4.940;2023-05-06T12:50:49;1999.90;;;999.90;;
13609;SDS011;6876;50.788;4.940;2023-05-06T12:53:37;1999.90;;;999.90;;
13609;SDS011;6876;50.788;4.940;2023-05-06T12:56:25;1999.90;;;999.90;;
13609;SDS011;6876;50.788;4.940;2023-05-06T12:59:13;1999.90;;;999.90;;
13609;SDS011;6876;50.788;4.940;2023-05-06T13:02:00;1999.90;;;999.90;;
13609;SDS011;6876;50.788;4.940;2023-05-06T13:04:48;1999.90;;;999.90;;
13609;SDS011;6876;50.788;4.940;2023-05-06T13:07:35;1999.90;;;999.90;;
13609;SDS011;6876;50.788;4.940;2023-05-06T13:10:22;1999.90;;;999.90;;
13609;SDS011;6876;50.788;4.940;2023-05-06T13:13:11;1999.90;;;999.90;;
13609;SDS011;6876;50.788;4.940;2023-05-06T13:15:58;1999.90;;;999.90;;
13609;SDS011;6876;50.788;4.940;2023-05-06T13:18:46;1999.90;;;999.90;;
13609;SDS011;6876;50.788;4.940;2023-05-06T13:21:33;1999.90;;;999.90;;
13609;SDS011;6876;50.788;4.940;2023-05-06T13:24:21;1999.90;;;999.90;;
13609;SDS011;6876;50.788;4.940;2023-05-06T13:27:08;1999.90;;;999.90;;
13609;SDS011;6876;50.788;4.940;2023-05-06T13:29:57;1999.90;;;999.90;;
13609;SDS011;6876;50.788;4.940;2023-05-06T13:32:44;1999.90;;;999.90;;
13609;SDS011;6876;50.788;4.940;2023-05-06T13:35:33;1999.90;;;999.90;;
13609;SDS011;6876;50.788;4.940;2023-05-06T13:38:20;1999.90;;;999.90;;
13609;SDS011;6876;50.788;4.940;2023-05-06T13:41:07;1999.90;;;999.90;;
13609;SDS011;6876;50.788;4.940;2023-05-06T13:43:54;1999.90;;;999.90;;
13609;SDS011;6876;50.788;4.940;2023-05-06T13:46:43;1999.90;;;999.90;;
13609;SDS011;6876;50.788;4.940;2023-05-06T13:49:31;1999.90;;;999.90;;
13609;SDS011;6876;50.788;4.940;2023-05-06T13:52:18;1999.90;;;999.90;;
13609;SDS011;6876;50.788;4.940;2023-05-06T13:55:06;1999.90;;;999.90;;
13609;SDS011;6876;50.788;4.940;2023-05-06T13:57:54;1999.90;;;999.90;;
13609;SDS011;6876;50.788;4.940;2023-05-06T14:00:41;1999.90;;;999.90;;
13609;SDS011;6876;50.788;4.940;2023-05-06T14:03:30;1999.90;;;999.90;;
13609;SDS011;6876;50.788;4.940;2023-05-06T14:06:17;1999.90;;;999.90;;
13609;SDS011;6876;50.788;4.940;2023-05-06T14:09:05;1999.90;;;999.90;;
13609;SDS011;6876;50.788;4.940;2023-05-06T14:11:53;1999.90;;;999.90;;
13609;SDS011;6876;50.788;4.940;2023-05-06T14:14:40;1999.90;;;999.90;;
13609;SDS011;6876;50.788;4.940;2023-05-06T14:17:27;1999.90;;;999.90;;
13609;SDS011;6876;50.788;4.940;2023-05-06T14:20:16;1999.90;;;999.90;;
13609;SDS011;6876;50.788;4.940;2023-05-06T14:23:03;1999.90;;;999.90;;
13609;SDS011;6876;50.788;4.940;2023-05-06T14:25:51;1999.90;;;999.90;;
13609;SDS011;6876;50.788;4.940;2023-05-06T14:28:38;1999.90;;;999.90;;
13609;SDS011;6876;50.788;4.940;2023-05-06T14:31:26;1999.90;;;999.90;;
13609;SDS011;6876;50.788;4.940;2023-05-06T14:34:13;1999.90;;;999.90;;
13609;SDS011;6876;50.788;4.940;2023-05-06T14:37:02;1999.90;;;999.90;;
13609;SDS011;6876;50.788;4.940;2023-05-06T14:39:50;1999.90;;;999.90;;
13609;SDS011;6876;50.788;4.940;2023-05-06T14:42:37;1999.90;;;999.90;;
13609;SDS011;6876;50.788;4.940;2023-05-06T14:45:24;1999.90;;;999.90;;
13609;SDS011;6876;50.788;4.940;2023-05-06T14:48:12;1999.90;;;999.90;;
13609;SDS011;6876;50.788;4.940;2023-05-06T14:50:59;1999.90;;;999.90;;
13609;SDS011;6876;50.788;4.940;2023-05-06T14:53:48;1999.90;;;999.90;;
13609;SDS011;6876;50.788;4.940;2023-05-06T14:56:35;1999.90;;;999.90;;
13609;SDS011;6876;50.788;4.940;2023-05-06T14:59:23;1999.90;;;999.90;;
13609;SDS011;6876;50.788;4.940;2023-05-06T15:02:10;1999.90;;;999.90;;
13609;SDS011;6876;50.788;4.940;2023-05-06T15:04:57;1999.90;;;999.90;;
13609;SDS011;6876;50.788;4.940;2023-05-06T15:07:45;1999.90;;;999.90;;
13609;SDS011;6876;50.788;4.940;2023-05-06T15:10:34;1999.90;;;999.90;;
13609;SDS011;6876;50.788;4.940;2023-05-06T15:13:21;1999.90;;;999.90;;
13609;SDS011;6876;50.788;4.940;2023-05-06T15:16:08;1999.90;;;999.90;;
13609;SDS011;6876;50.788;4.940;2023-05-06T15:18:56;1999.90;;;999.90;;
13609;SDS011;6876;50.788;4.940;2023-05-06T15:21:43;1999.90;;;999.90;;
13609;SDS011;6876;50.788;4.940;2023-05-06T15:24:30;1999.90;;;999.90;;
13609;SDS011;6876;50.788;4.940;2023-05-06T15:27:19;1999.90;;;999.90;;
13609;SDS011;6876;50.788;4.940;2023-05-06T15:30:07;1999.90;;;999.90;;
13609;SDS011;6876;50.788;4.940;2023-05-06T15:32:54;1999.90;;;999.90;;
13609;SDS011;6876;50.788;4.940;2023-05-06T15:35:42;1999.90;;;999.90;;
13609;SDS011;6876;50.788;4.940;2023-05-06T15:38:30;1999.90;;;999.90;;
13609;SDS011;6876;50.788;4.940;2023-05-06T15:41:41;1999.90;;;999.90;;
13609;SDS011;6876;50.788;4.940;2023-05-06T15:44:30;1999.90;;;999.90;;
13609;SDS011;6876;50.788;4.940;2023-05-06T15:47:18;1999.90;;;999.90;;
13609;SDS011;6876;50.788;4.940;2023-05-06T15:50:06;1999.90;;;999.90;;
13609;SDS011;6876;50.788;4.940;2023-05-06T15:52:53;1999.90;;;999.90;;
13609;SDS011;6876;50.788;4.940;2023-05-06T15:55:40;1999.90;;;999.90;;
13609;SDS011;6876;50.788;4.940;2023-05-06T15:58:28;1999.90;;;999.90;;
13609;SDS011;6876;50.788;4.940;2023-05-06T16:01:17;1999.90;;;999.90;;
13609;SDS011;6876;50.788;4.940;2023-05-06T16:04:04;1999.90;;;999.90;;
13609;SDS011;6876;50.788;4.940;2023-05-06T16:06:51;1999.90;;;999.90;;
13609;SDS011;6876;50.788;4.940;2023-05-06T16:09:39;1999.90;;;999.90;;